ADDS METAR Data INFO
IDs: Format: Raw Decoded Include TAF

Data at: 0857 UTC 22 Feb 2018

KVDI 220835Z AUTO 18004KT 10SM OVC010 21/20 A3040 RMK AO2
KVDI 220815Z AUTO 18005KT 10SM OVC010 21/20 A3040 RMK AO2
KVDI 220755Z AUTO 17003KT 10SM OVC008 21/20 A3041 RMK AO2
KVDI 220735Z AUTO 18003KT 10SM OVC008 21/20 A3041 RMK AO2
KVDI 220715Z AUTO 18005KT 10SM OVC006 21/20 A3041 RMK AO2
KVDI 220655Z AUTO 16007KT 10SM OVC006 21/20 A3041 RMK AO2
KVDI 220635Z AUTO 16004KT 10SM OVC006 21/20 A3041 RMK AO2
KVDI 220615Z AUTO 17005KT 10SM OVC006 21/20 A3041 RMK AO2
KVDI 220555Z AUTO 17003KT 10SM OVC008 20/20 A3041 RMK AO2
KVDI 220535Z AUTO 17004KT 10SM OVC008 20/20 A3041 RMK AO2
KVDI 220515Z AUTO 00000KT 10SM SCT010 20/20 A3041 RMK AO2
KVDI 220455Z AUTO 15003KT 10SM SCT010 20/20 A3041 RMK AO2
KVDI 220435Z AUTO 15004KT 10SM CLR 20/19 A3041 RMK AO2
KVDI 220415Z AUTO 14004KT 10SM CLR 20/19 A3041 RMK AO2
KVDI 220355Z AUTO 15005KT 10SM CLR 21/19 A3041 RMK AO2
KVDI 220035Z AUTO 15008KT 10SM CLR 24/18 A3038 RMK AO2
KVDI 220015Z AUTO 15006KT 10SM CLR 25/18 A3037 RMK AO2
KVDI 212355Z AUTO 15004KT 10SM CLR 25/18 A3037 RMK AO2
KVDI 212335Z AUTO 14005KT 10SM CLR 26/18 A3036 RMK AO2
KVDI 212315Z AUTO 15007KT 10SM SCT050 26/18 A3036 RMK AO2
KVDI 212255Z AUTO 14007KT 10SM SCT050 BKN075 27/18 A3035 RMK AO2
KVDI 212235Z AUTO 14005KT 10SM SCT075 27/18 A3035 RMK AO2
KVDI 212215Z AUTO 12005KT 10SM SCT048 BKN075 29/18 A3035 RMK AO2
KVDI 212155Z AUTO 13005KT 10SM BKN050 OVC075 28/18 A3035 RMK AO2
KVDI 212135Z AUTO 15003KT 10SM SCT060 BKN075 29/18 A3035 RMK AO2
KVDI 212115Z AUTO 17004KT 10SM BKN075 30/18 A3035 RMK AO2
KVDI 212055Z AUTO 20004KT 10SM BKN075 28/18 A3035 RMK AO2
KVDI 212035Z AUTO 14003KT 10SM SCT042 SCT050 BKN065 28/18 A3035 RMK AO2
KVDI 212015Z AUTO 19005KT 10SM BKN042 BKN060 BKN075 29/18 A3036 RMK AO2
KVDI 211955Z AUTO 19005KT 10SM SCT040 SCT050 BKN070 28/18 A3036 RMK AO2
KVDI 211935Z AUTO 22004KT 10SM SCT040 BKN050 BKN075 29/19 A3037 RMK AO2
KVDI 211915Z AUTO 14003KT 10SM SCT040 SCT048 BKN050 28/19 A3037 RMK AO2
KVDI 211855Z AUTO 23004KT 10SM SCT039 SCT048 BKN070 30/19 A3038 RMK AO2
KVDI 211835Z AUTO 19005KT 10SM SCT035 SCT060 OVC070 28/20 A3039 RMK AO2
KVDI 211815Z AUTO 22004KT 10SM BKN035 BKN040 OVC060 28/19 A3039 RMK AO2
KVDI 211755Z AUTO 00000KT 10SM SCT035 BKN045 OVC060 27/20 A3040 RMK AO2
KVDI 211735Z AUTO 20007KT 10SM SCT030 SCT036 OVC060 28/20 A3041 RMK AO2
KVDI 211715Z AUTO 18008KT 10SM SCT030 SCT036 BKN060 27/20 A3042 RMK AO2
KVDI 211655Z AUTO 20005KT 10SM SCT024 SCT037 OVC060 26/20 A3042 RMK AO2
KVDI 211635Z AUTO 21007KT 10SM SCT022 BKN027 OVC060 26/20 A3043 RMK AO2
KVDI 211615Z AUTO 18007KT 10SM BKN022 OVC027 27/21 A3043 RMK AO2
KVDI 211555Z AUTO 19010G17KT 10SM BKN022 BKN027 OVC037 26/20 A3044 RMK AO2
KVDI 211535Z AUTO 20009KT 10SM BKN018 BKN022 OVC042 25/21 A3044 RMK AO2
KVDI 211515Z AUTO 17006KT 10SM BKN014 BKN020 OVC026 24/21 A3045 RMK AO2
KVDI 211455Z AUTO 17003KT 10SM BKN012 OVC020 23/21 A3045 RMK AO2
KVDI 211435Z AUTO 18006KT 10SM OVC010 23/21 A3045 RMK AO2
KVDI 211415Z AUTO 16003KT 10SM OVC008 22/21 A3044 RMK AO2
KVDI 211355Z AUTO 15003KT 10SM BKN008 BKN015 OVC038 22/21 A3044 RMK AO2
KVDI 211335Z AUTO 00000KT 10SM SCT012 BKN016 OVC038 22/21 A3044 RMK AO2
KVDI 211315Z AUTO 00000KT 10SM OVC012 21/21 A3043 RMK AO2
KVDI 211255Z AUTO 00000KT 10SM OVC012 21/20 A3043 RMK AO2
KVDI 210755Z AUTO 16003KT 10SM OVC010 22/20 A3039 RMK AO2
KVDI 210735Z AUTO 16005KT 10SM OVC010 22/20 A3039 RMK AO2
KVDI 210715Z AUTO 16003KT 10SM OVC012 21/20 A3040 RMK AO2
KVDI 210655Z AUTO 15003KT 10SM OVC012 21/20 A3040 RMK AO2
KVDI 210635Z AUTO 15004KT 10SM OVC012 21/20 A3040 RMK AO2
KVDI 210615Z AUTO 15003KT 10SM OVC012 21/20 A3040 RMK AO2
KVDI 210555Z AUTO 15003KT 10SM BKN014 OVC026 21/20 A3040 RMK AO2